Time;durP1;ratioP1;P1;durP2;ratioP2;P2;SDS_P1;SDS_P2;PMS_P1;PMS_P2;Temp;Humidity;BMP_temperature;BMP_pressure;BME280_temperature;BME280_humidity;BME280_pressure;Samples;Min_cycle;Max_cycle;Signal;HPM_P1;HPM_P2
2023/08/18 00:01:35;;;;;;;0.95;0.55;;;16.40;68.40;;;;;;5052829;28;20025;-80
2023/08/18 00:04:02;;;;;;;2.35;0.50;;;16.50;69.00;;;;;;5053751;28;20511;-79
2023/08/18 00:06:30;;;;;;;1.98;0.50;;;16.50;67.10;;;;;;5053621;28;20035;-79
2023/08/18 00:08:58;;;;;;;0.55;0.47;;;16.60;66.90;;;;;;5068823;28;20045;-78
2023/08/18 00:11:25;;;;;;;0.57;0.40;;;16.50;64.40;;;;;;5053596;28;20497;-80
2023/08/18 00:13:53;;;;;;;0.70;0.50;;;16.60;65.50;;;;;;5052248;28;20029;-82
2023/08/18 00:16:20;;;;;;;0.32;0.32;;;16.60;63.60;;;;;;5053530;28;20032;-79
2023/08/18 00:18:47;;;;;;;0.40;0.30;;;16.70;63.40;;;;;;5053315;28;20045;-79
2023/08/18 00:21:15;;;;;;;0.95;0.52;;;16.70;63.00;;;;;;5053517;28;20025;-80
2023/08/18 00:23:44;;;;;;;0.50;0.45;;;16.70;64.20;;;;;;5053611;28;20027;-79
2023/08/18 00:26:11;;;;;;;1.23;0.40;;;16.70;64.60;;;;;;5053307;28;20045;-79
2023/08/18 00:28:39;;;;;;;0.50;0.50;;;16.70;62.60;;;;;;5053357;28;20031;-80
2023/08/18 00:31:06;;;;;;;0.50;0.50;;;16.80;61.60;;;;;;5053534;28;20031;-81
2023/08/18 00:33:34;;;;;;;1.05;0.68;;;16.80;62.60;;;;;;5053144;28;20037;-80
2023/08/18 00:36:01;;;;;;;0.40;0.40;;;16.90;63.10;;;;;;5053264;28;20105;-82
2023/08/18 00:38:29;;;;;;;0.60;0.60;;;17.00;61.80;;;;;;5053068;28;20450;-80
2023/08/18 00:40:56;;;;;;;0.40;0.40;;;17.10;61.90;;;;;;5052710;28;20017;-80
2023/08/18 00:43:24;;;;;;;0.45;0.45;;;17.30;61.00;;;;;;5051973;28;20184;-80
2023/08/18 00:45:53;;;;;;;0.47;0.47;;;17.30;60.40;;;;;;5053128;28;20025;-82
2023/08/18 00:48:22;;;;;;;0.32;0.32;;;17.50;59.80;;;;;;5053159;28;20021;-79
2023/08/18 00:50:50;;;;;;;0.40;0.40;;;17.70;58.70;;;;;;5052806;28;20536;-80
2023/08/18 00:53:18;;;;;;;1.13;0.38;;;17.80;58.70;;;;;;5052903;28;20021;-78
2023/08/18 00:55:48;;;;;;;0.35;0.30;;;17.90;57.40;;;;;;5052888;28;20070;-82
2023/08/18 00:58:15;;;;;;;0.70;0.40;;;18.00;56.00;;;;;;5052801;28;20064;-79
2023/08/18 01:00:43;;;;;;;0.50;0.50;;;18.10;56.00;;;;;;5052583;28;20025;-80
2023/08/18 01:03:11;;;;;;;0.70;0.40;;;18.00;55.70;;;;;;5052900;28;20028;-79
2023/08/18 01:05:39;;;;;;;0.40;0.40;;;17.90;53.30;;;;;;5052779;28;20021;-79
2023/08/18 01:08:06;;;;;;;0.73;0.30;;;18.10;54.30;;;;;;5052692;28;20091;-78
2023/08/18 01:10:57;;;;;;;0.20;0.20;;;18.20;54.50;;;;;;5052799;28;20029;-78
2023/08/18 01:13:51;;;;;;;0.30;0.20;;;18.20;51.50;;;;;;5041241;28;20067;-79
2023/08/18 01:16:29;;;;;;;0.47;0.25;;;18.20;51.20;;;;;;5052566;28;20029;-80
2023/08/18 01:18:58;;;;;;;0.20;0.20;;;18.20;52.10;;;;;;5052473;28;20068;-78
2023/08/18 01:21:26;;;;;;;0.28;0.28;;;18.20;49.80;;;;;;5052594;28;20387;-79
2023/08/18 01:23:53;;;;;;;1.10;0.30;;;18.10;51.00;;;;;;5052576;28;20021;-79
2023/08/18 01:26:21;;;;;;;0.30;0.30;;;18.00;52.70;;;;;;5052593;28;20068;-79
2023/08/18 01:28:48;;;;;;;1.65;0.40;;;18.10;51.60;;;;;;5052375;28;20017;-80
2023/08/18 01:31:25;;;;;;;0.30;0.30;;;18.10;52.50;;;;;;5052652;28;20025;-79
2023/08/18 01:33:53;;;;;;;1.98;0.20;;;18.20;51.70;;;;;;5052836;28;20032;-78
2023/08/18 01:36:23;;;;;;;0.25;0.25;;;18.00;50.70;;;;;;5051360;28;20040;-79
2023/08/18 01:38:53;;;;;;;0.20;0.20;;;18.00;49.60;;;;;;5052883;28;20027;-78
2023/08/18 01:41:26;;;;;;;0.32;0.32;;;17.90;50.50;;;;;;5052547;28;20109;-79
2023/08/18 01:43:54;;;;;;;0.30;0.30;;;17.90;51.20;;;;;;5052687;28;20375;-78
2023/08/18 01:46:21;;;;;;;1.17;0.28;;;17.90;50.30;;;;;;5052592;28;20103;-78
2023/08/18 01:48:48;;;;;;;0.20;0.20;;;17.90;51.90;;;;;;5052306;28;20055;-80
2023/08/18 01:51:16;;;;;;;0.47;0.30;;;17.90;50.60;;;;;;5052591;28;20040;-78
2023/08/18 01:53:43;;;;;;;0.63;0.40;;;17.80;50.50;;;;;;5052475;28;20021;-79
2023/08/18 01:56:11;;;;;;;1.40;0.30;;;17.80;50.40;;;;;;5052391;28;20028;-79
2023/08/18 01:58:39;;;;;;;0.80;0.32;;;17.70;50.40;;;;;;5052447;28;20029;-80
2023/08/18 02:01:06;;;;;;;0.30;0.30;;;17.70;50.70;;;;;;5052241;28;20470;-79
2023/08/18 02:03:34;;;;;;;0.30;0.30;;;17.70;50.80;;;;;;5052342;28;20025;-79
2023/08/18 02:06:03;;;;;;;0.38;0.30;;;17.70;49.40;;;;;;5052257;28;20127;-78
2023/08/18 02:08:30;;;;;;;0.20;0.20;;;17.70;48.90;;;;;;5052037;28;20074;-80
2023/08/18 02:11:04;;;;;;;0.75;0.20;;;17.80;47.70;;;;;;5051939;28;20052;-79
2023/08/18 02:13:33;;;;;;;1.17;0.40;;;17.90;46.80;;;;;;5054005;28;20433;-80
2023/08/18 02:16:00;;;;;;;1.35;0.90;;;17.90;47.20;;;;;;5055971;28;20060;-80
2023/08/18 02:18:28;;;;;;;1.08;0.20;;;18.00;46.60;;;;;;5055666;28;20080;-79
2023/08/18 02:20:59;;;;;;;0.30;0.30;;;18.00;46.50;;;;;;5055409;28;20059;-79
2023/08/18 02:23:26;;;;;;;1.60;0.20;;;18.00;47.30;;;;;;5055869;28;20025;-80
2023/08/18 02:26:04;;;;;;;0.20;0.20;;;18.00;46.40;;;;;;5055619;28;20021;-77
2023/08/18 02:28:32;;;;;;;0.63;0.28;;;18.00;45.40;;;;;;5055586;28;20021;-80
2023/08/18 02:31:05;;;;;;;0.20;0.20;;;18.00;46.00;;;;;;5055443;28;20395;-79
2023/08/18 02:33:34;;;;;;;2.50;0.30;;;18.00;45.80;;;;;;5055610;28;20051;-78
2023/08/18 02:36:02;;;;;;;0.40;0.40;;;18.10;45.80;;;;;;5055743;28;20031;-80
2023/08/18 02:38:30;;;;;;;0.68;0.40;;;18.00;46.10;;;;;;5055260;28;20098;-79
2023/08/18 02:40:58;;;;;;;0.22;0.20;;;18.00;45.40;;;;;;5055187;28;20017;-79
2023/08/18 02:43:26;;;;;;;0.63;0.30;;;18.00;44.30;;;;;;5055316;28;20155;-78
2023/08/18 02:46:00;;;;;;;0.20;0.20;;;18.00;43.90;;;;;;5055255;28;20017;-79
2023/08/18 02:48:31;;;;;;;0.57;0.38;;;18.00;43.50;;;;;;5055236;28;20032;-78
2023/08/18 02:51:06;;;;;;;1.67;0.52;;;18.00;44.40;;;;;;5055099;28;20045;-78
2023/08/18 02:53:34;;;;;;;0.50;0.50;;;18.10;45.00;;;;;;5053758;28;20094;-78
2023/08/18 02:56:02;;;;;;;0.80;0.70;;;18.10;40.00;;;;;;5055102;28;20028;-78
2023/08/18 02:58:31;;;;;;;0.40;0.40;;;18.00;40.80;;;;;;5054977;28;20061;-78
2023/08/18 03:01:04;;;;;;;0.60;0.40;;;18.00;40.60;;;;;;5054696;28;20022;-78
2023/08/18 03:03:32;;;;;;;1.23;0.45;;;17.90;39.70;;;;;;5054964;28;20479;-78
2023/08/18 03:06:08;;;;;;;0.63;0.40;;;17.90;39.50;;;;;;5054891;28;20387;-79
2023/08/18 03:08:38;;;;;;;0.32;0.32;;;17.90;40.20;;;;;;5055452;28;20053;-79
2023/08/18 03:11:09;;;;;;;0.30;0.30;;;17.90;39.70;;;;;;5054860;28;20029;-78
2023/08/18 03:13:37;;;;;;;1.60;0.30;;;18.00;40.80;;;;;;5054711;28;20351;-78
2023/08/18 03:16:07;;;;;;;2.58;0.32;;;17.90;40.10;;;;;;5054768;28;20056;-78
2023/08/18 03:18:35;;;;;;;0.20;0.20;;;18.00;43.20;;;;;;5054652;28;20045;-79
2023/08/18 03:21:03;;;;;;;1.35;0.30;;;18.00;43.30;;;;;;5054502;28;20025;-78
2023/08/18 03:23:35;;;;;;;0.30;0.30;;;18.00;43.10;;;;;;5067157;28;20041;-77
2023/08/18 03:26:06;;;;;;;0.30;0.30;;;18.00;41.80;;;;;;5053659;28;20036;-79
2023/08/18 03:28:38;;;;;;;1.17;0.40;;;18.10;44.10;;;;;;5054222;28;20104;-78
2023/08/18 03:31:07;;;;;;;1.00;0.50;;;18.20;42.70;;;;;;5054335;28;20052;-82
2023/08/18 03:33:36;;;;;;;0.52;0.35;;;18.20;42.00;;;;;;5054503;28;20471;-80
2023/08/18 03:36:04;;;;;;;0.98;0.60;;;18.20;41.80;;;;;;5054158;28;20029;-79
2023/08/18 03:38:31;;;;;;;1.15;0.60;;;18.10;40.20;;;;;;5053961;28;20037;-79
2023/08/18 03:41:04;;;;;;;0.47;0.40;;;18.10;38.60;;;;;;5053893;28;20113;-79
2023/08/18 03:43:32;;;;;;;0.30;0.30;;;18.00;39.10;;;;;;5052177;28;20475;-80
2023/08/18 03:46:03;;;;;;;2.28;0.40;;;18.00;39.30;;;;;;5053501;28;20025;-80
2023/08/18 03:48:30;;;;;;;3.88;0.47;;;18.00;40.00;;;;;;5053591;28;20013;-81
2023/08/18 03:50:57;;;;;;;0.30;0.30;;;18.00;38.90;;;;;;5053419;28;20017;-80
2023/08/18 03:53:25;;;;;;;0.30;0.30;;;18.00;39.30;;;;;;5053202;28;20033;-79
2023/08/18 03:55:59;;;;;;;0.35;0.30;;;18.00;38.40;;;;;;5053307;28;20021;-81
2023/08/18 03:58:26;;;;;;;0.20;0.20;;;18.10;41.80;;;;;;5066100;28;20056;-80
2023/08/18 04:01:04;;;;;;;1.77;0.30;;;18.20;39.00;;;;;;5052977;28;20021;-80
2023/08/18 04:03:32;;;;;;;1.30;0.30;;;18.10;38.60;;;;;;5051984;28;20021;-79
2023/08/18 04:05:59;;;;;;;0.38;0.38;;;18.20;38.50;;;;;;5053001;28;20027;-80
2023/08/18 04:08:27;;;;;;;1.58;0.30;;;18.20;38.90;;;;;;5053289;28;20032;-80
2023/08/18 04:10:54;;;;;;;0.80;0.45;;;18.20;36.50;;;;;;5051723;28;20025;-79
2023/08/18 04:13:21;;;;;;;0.82;0.30;;;18.20;36.10;;;;;;5057230;28;20116;-79
2023/08/18 04:15:49;;;;;;;2.47;0.40;;;18.00;36.00;;;;;;5059756;28;20114;-80
2023/08/18 04:18:17;;;;;;;2.15;0.30;;;17.90;37.10;;;;;;5062296;28;20037;-79
2023/08/18 04:20:44;;;;;;;4.13;0.50;;;17.90;37.50;;;;;;5063675;28;20025;-80
2023/08/18 04:23:12;;;;;;;2.00;0.57;;;18.00;37.30;;;;;;5062537;28;20031;-81
2023/08/18 04:25:42;;;;;;;3.13;0.52;;;18.00;38.30;;;;;;5062265;28;20015;-81
2023/08/18 04:28:09;;;;;;;3.22;0.30;;;18.00;38.60;;;;;;5059628;28;20056;-80
2023/08/18 04:30:38;;;;;;;0.40;0.32;;;18.00;36.70;;;;;;5062462;28;20427;-80
2023/08/18 04:33:06;;;;;;;1.45;0.40;;;18.00;37.00;;;;;;5063503;28;20486;-80
2023/08/18 04:35:34;;;;;;;2.20;0.60;;;17.90;36.70;;;;;;5061052;28;20075;-79
2023/08/18 04:38:01;;;;;;;2.85;0.63;;;17.90;37.60;;;;;;5061680;28;20037;-80
2023/08/18 04:40:29;;;;;;;4.32;0.95;;;17.90;38.60;;;;;;5061843;28;20017;-80
2023/08/18 04:42:56;;;;;;;1.10;0.60;;;17.90;38.10;;;;;;5062802;28;20087;-80
2023/08/18 04:45:24;;;;;;;5.03;0.40;;;17.90;36.40;;;;;;5059068;28;20009;-80
2023/08/18 04:47:52;;;;;;;3.85;0.77;;;17.80;37.00;;;;;;5062400;28;20364;-79
2023/08/18 04:50:20;;;;;;;0.88;0.40;;;17.80;36.30;;;;;;5063545;28;20021;-80
2023/08/18 04:52:48;;;;;;;1.58;0.30;;;17.80;38.50;;;;;;5061754;28;20033;-79
2023/08/18 04:55:15;;;;;;;0.98;0.40;;;17.80;36.90;;;;;;5062884;28;20035;-80
2023/08/18 04:57:43;;;;;;;2.97;0.50;;;17.70;37.40;;;;;;5066187;28;20483;-80
2023/08/18 05:00:11;;;;;;;2.13;0.40;;;17.80;38.20;;;;;;5062631;28;20024;-78
2023/08/18 05:02:38;;;;;;;1.20;0.60;;;17.70;36.60;;;;;;5061278;28;20107;-78
2023/08/18 05:05:06;;;;;;;3.22;0.43;;;17.60;38.70;;;;;;5055688;28;20051;-78
2023/08/18 05:07:33;;;;;;;0.95;0.50;;;17.70;37.70;;;;;;5048251;28;20440;-79
2023/08/18 05:10:02;;;;;;;1.48;0.40;;;17.70;38.50;;;;;;5052350;28;20036;-79
2023/08/18 05:12:30;;;;;;;2.38;0.40;;;17.70;37.50;;;;;;5052219;28;20025;-79
2023/08/18 05:14:57;;;;;;;0.32;0.30;;;17.70;38.10;;;;;;5052526;28;20017;-79
2023/08/18 05:17:25;;;;;;;5.22;0.65;;;17.70;37.40;;;;;;5054736;28;20109;-81
2023/08/18 05:19:52;;;;;;;0.30;0.30;;;17.70;37.90;;;;;;5063146;28;20055;-79
2023/08/18 05:22:21;;;;;;;1.38;0.50;;;17.70;38.60;;;;;;5059161;28;20460;-79
2023/08/18 05:24:49;;;;;;;1.38;0.63;;;17.70;36.70;;;;;;5061296;28;20024;-79
2023/08/18 05:27:17;;;;;;;0.85;0.22;;;17.70;37.60;;;;;;5063286;28;20017;-80
2023/08/18 05:29:45;;;;;;;1.40;0.60;;;17.70;37.10;;;;;;5060772;28;20446;-77
2023/08/18 05:32:12;;;;;;;2.55;0.30;;;17.60;38.20;;;;;;5061015;28;20057;-78
2023/08/18 05:34:40;;;;;;;1.38;0.40;;;17.60;38.10;;;;;;5062308;28;20078;-77
2023/08/18 05:37:07;;;;;;;0.43;0.43;;;17.60;39.30;;;;;;5057351;28;20040;-77
2023/08/18 05:39:35;;;;;;;0.60;0.43;;;17.60;38.00;;;;;;5051805;28;20044;-79
2023/08/18 05:42:02;;;;;;;2.08;0.30;;;17.50;37.60;;;;;;5051953;28;20024;-78
2023/08/18 05:44:30;;;;;;;2.78;0.30;;;17.40;37.40;;;;;;5052450;28;20107;-80
2023/08/18 05:46:57;;;;;;;1.75;0.43;;;17.40;38.50;;;;;;5049451;28;20025;-79
2023/08/18 05:49:25;;;;;;;1.02;0.30;;;17.40;38.70;;;;;;5055586;28;20029;-79
2023/08/18 05:51:53;;;;;;;0.63;0.30;;;17.30;38.40;;;;;;5056419;28;20029;-80
2023/08/18 05:54:20;;;;;;;1.20;0.40;;;17.40;38.40;;;;;;5055935;28;20483;-77
2023/08/18 05:56:47;;;;;;;1.08;0.50;;;17.30;38.90;;;;;;5055985;28;20032;-78
2023/08/18 05:59:15;;;;;;;1.52;0.45;;;17.30;40.00;;;;;;5056186;28;20029;-79
2023/08/18 06:01:42;;;;;;;1.42;0.50;;;17.30;40.60;;;;;;5055964;28;20102;-80
2023/08/18 06:04:10;;;;;;;0.77;0.40;;;17.30;40.10;;;;;;5056218;28;20030;-79
2023/08/18 06:06:38;;;;;;;1.52;0.30;;;17.20;41.20;;;;;;5054727;28;20028;-78
2023/08/18 06:09:06;;;;;;;1.27;0.50;;;17.20;40.00;;;;;;5055769;28;20413;-78
2023/08/18 06:11:33;;;;;;;0.80;0.50;;;17.20;40.70;;;;;;5055993;28;20017;-78
2023/08/18 06:14:01;;;;;;;0.57;0.40;;;17.20;40.30;;;;;;5055409;28;20021;-79
2023/08/18 06:16:28;;;;;;;0.35;0.35;;;17.20;39.80;;;;;;5044791;28;20009;-77
2023/08/18 06:18:55;;;;;;;0.65;0.40;;;17.20;39.70;;;;;;5045108;28;20033;-82
2023/08/18 06:21:23;;;;;;;0.70;0.47;;;17.10;38.40;;;;;;5049505;28;20479;-84
2023/08/18 06:23:50;;;;;;;1.55;0.70;;;17.10;40.20;;;;;;5059165;28;20032;-80
2023/08/18 06:26:18;;;;;;;0.88;0.63;;;17.00;40.30;;;;;;5073908;28;20073;-83
2023/08/18 06:28:45;;;;;;;1.10;0.73;;;17.00;40.20;;;;;;5074480;28;20024;-79
2023/08/18 06:31:13;;;;;;;1.15;0.75;;;17.00;40.60;;;;;;5075456;28;20154;-79
2023/08/18 06:33:40;;;;;;;0.43;0.30;;;16.90;40.70;;;;;;5074581;28;20103;-82
2023/08/18 06:36:08;;;;;;;0.52;0.40;;;16.80;40.00;;;;;;5075104;28;20027;-82
2023/08/18 06:38:35;;;;;;;0.70;0.60;;;16.70;41.40;;;;;;5075331;28;20037;-82
2023/08/18 06:41:03;;;;;;;3.42;0.65;;;16.70;41.80;;;;;;5075272;28;20498;-82
2023/08/18 06:43:30;;;;;;;0.80;0.57;;;16.70;41.90;;;;;;5075390;28;20107;-82
2023/08/18 06:45:58;;;;;;;0.50;0.50;;;16.70;41.60;;;;;;5075396;28;20016;-82
2023/08/18 06:48:25;;;;;;;0.35;0.30;;;16.70;41.80;;;;;;5075221;28;20028;-81
2023/08/18 06:50:52;;;;;;;0.30;0.30;;;16.60;41.90;;;;;;5075220;28;20024;-82
2023/08/18 06:53:20;;;;;;;0.90;0.50;;;16.60;42.70;;;;;;5075108;28;20078;-82
2023/08/18 06:55:48;;;;;;;0.68;0.50;;;16.60;41.50;;;;;;5074814;28;20020;-81
2023/08/18 06:58:15;;;;;;;1.15;0.60;;;16.50;42.60;;;;;;5074685;28;20454;-82
2023/08/18 07:00:42;;;;;;;2.47;0.70;;;16.50;42.40;;;;;;5074636;28;20017;-83
2023/08/18 07:03:10;;;;;;;3.15;0.47;;;16.40;42.20;;;;;;5075039;28;20025;-80
2023/08/18 07:05:37;;;;;;;2.70;0.70;;;16.30;42.80;;;;;;5074903;28;20017;-79
2023/08/18 07:08:05;;;;;;;1.55;0.60;;;16.30;44.00;;;;;;5074775;28;20020;-82
2023/08/18 07:10:32;;;;;;;1.13;0.60;;;16.20;43.00;;;;;;5074686;28;20111;-83
2023/08/18 07:13:00;;;;;;;0.57;0.45;;;16.30;42.90;;;;;;5074766;28;20112;-81
2023/08/18 07:15:27;;;;;;;1.08;0.70;;;16.20;42.80;;;;;;5074839;28;20070;-83
2023/08/18 07:17:55;;;;;;;1.80;0.50;;;16.20;43.80;;;;;;5074650;28;20055;-82
2023/08/18 07:20:23;;;;;;;1.65;0.60;;;16.10;43.40;;;;;;5074902;28;20029;-81
2023/08/18 07:22:50;;;;;;;1.83;0.70;;;16.10;43.80;;;;;;5074471;28;20033;-82
2023/08/18 07:25:18;;;;;;;1.75;0.82;;;16.10;44.50;;;;;;5074878;28;20028;-84
2023/08/18 07:27:45;;;;;;;0.65;0.65;;;16.00;45.20;;;;;;5074867;28;20479;-81
2023/08/18 07:30:14;;;;;;;1.88;0.70;;;16.00;43.60;;;;;;5074483;28;20024;-82
2023/08/18 07:32:42;;;;;;;0.68;0.50;;;15.80;44.10;;;;;;5074613;28;20044;-81
2023/08/18 07:35:10;;;;;;;1.40;0.60;;;15.80;44.40;;;;;;5073244;28;20379;-82
2023/08/18 07:37:37;;;;;;;1.65;0.75;;;15.70;43.80;;;;;;5074187;28;20028;-81
2023/08/18 07:40:09;;;;;;;3.67;0.90;;;15.70;44.70;;;;;;5074451;28;20017;-78
2023/08/18 07:42:38;;;;;;;4.03;1.10;;;15.60;44.70;;;;;;5074256;28;20024;-81
2023/08/18 07:45:08;;;;;;;3.05;1.10;;;15.60;44.70;;;;;;5074181;28;20079;-82
2023/08/18 07:47:38;;;;;;;3.88;1.10;;;15.60;45.10;;;;;;5074059;28;20043;-79
2023/08/18 07:50:10;;;;;;;0.93;0.68;;;15.50;45.30;;;;;;5074083;28;20486;-81
2023/08/18 07:52:38;;;;;;;2.65;0.80;;;15.50;44.60;;;;;;5074001;28;20033;-82
2023/08/18 07:55:07;;;;;;;1.42;0.52;;;15.40;45.00;;;;;;5073949;28;20024;-81
2023/08/18 07:57:36;;;;;;;1.75;0.90;;;15.40;44.60;;;;;;5073779;28;20082;-82
2023/08/18 08:00:14;;;;;;;1.05;0.80;;;15.40;45.70;;;;;;5089119;28;20027;-82
2023/08/18 08:02:42;;;;;;;1.23;0.80;;;15.30;46.30;;;;;;5073435;28;20020;-82
2023/08/18 08:05:10;;;;;;;1.65;1.10;;;15.30;45.90;;;;;;5073616;28;20048;-82
2023/08/18 08:07:38;;;;;;;2.75;1.63;;;15.30;46.20;;;;;;5073660;28;20413;-82
2023/08/18 08:10:06;;;;;;;1.73;1.10;;;15.20;45.30;;;;;;5073164;28;20025;-82
2023/08/18 08:12:34;;;;;;;3.08;1.48;;;15.20;45.50;;;;;;5073587;28;20043;-81
2023/08/18 08:15:05;;;;;;;3.35;1.33;;;15.10;45.90;;;;;;5071977;28;20132;-82
2023/08/18 08:17:33;;;;;;;2.97;1.70;;;15.00;47.10;;;;;;5073425;28;20036;-82
2023/08/18 08:20:10;;;;;;;2.22;1.20;;;15.10;46.40;;;;;;5073390;28;20036;-82
2023/08/18 08:22:38;;;;;;;2.20;1.23;;;15.00;45.90;;;;;;5073327;28;20356;-82
2023/08/18 08:25:06;;;;;;;1.60;1.20;;;15.00;46.50;;;;;;5073374;28;20148;-82
2023/08/18 08:27:33;;;;;;;2.15;1.50;;;15.00;47.30;;;;;;5073039;28;20028;-81
2023/08/18 08:30:01;;;;;;;2.33;1.35;;;14.90;47.60;;;;;;5071898;28;20028;-82
2023/08/18 08:32:28;;;;;;;2.33;1.58;;;14.90;47.20;;;;;;5073311;28;20027;-82
2023/08/18 08:34:56;;;;;;;1.52;1.20;;;14.80;47.30;;;;;;5072956;28;20016;-81
2023/08/18 08:37:23;;;;;;;2.63;1.60;;;14.80;48.10;;;;;;5072613;28;20052;-81
2023/08/18 08:39:52;;;;;;;3.35;2.28;;;14.80;48.30;;;;;;5073028;28;20025;-80
2023/08/18 08:42:20;;;;;;;3.60;2.28;;;14.80;48.00;;;;;;5072893;28;20032;-81
2023/08/18 08:44:47;;;;;;;3.13;1.77;;;14.70;48.20;;;;;;5072813;28;20070;-77
2023/08/18 08:47:17;;;;;;;4.22;1.65;;;14.70;48.30;;;;;;5072905;28;20043;-80
2023/08/18 08:49:45;;;;;;;2.55;1.17;;;14.60;49.20;;;;;;5072991;28;20103;-79
2023/08/18 08:52:16;;;;;;;2.33;1.40;;;14.60;50.40;;;;;;5072788;28;20103;-78
2023/08/18 08:54:58;;;;;;;4.25;2.33;;;14.70;50.60;;;;;;5072601;28;20486;-82
2023/08/18 08:57:26;;;;;;;4.78;2.50;;;14.60;50.30;;;;;;5072740;28;20046;-80
2023/08/18 08:59:54;;;;;;;4.75;2.40;;;14.60;50.50;;;;;;5071604;28;20016;-82
2023/08/18 09:02:24;;;;;;;2.35;1.42;;;14.70;50.40;;;;;;5072890;28;20024;-81
2023/08/18 09:04:51;;;;;;;1.98;1.50;;;14.70;51.10;;;;;;5072686;28;20013;-81
2023/08/18 09:07:19;;;;;;;2.08;1.20;;;14.60;50.90;;;;;;5072879;28;20099;-82
2023/08/18 09:09:46;;;;;;;2.40;1.45;;;14.60;51.30;;;;;;5072902;28;20074;-80
2023/08/18 09:12:14;;;;;;;1.52;1.10;;;14.50;51.40;;;;;;5072950;28;20017;-81
2023/08/18 09:14:43;;;;;;;2.38;1.25;;;14.50;50.10;;;;;;5072582;28;20025;-80
2023/08/18 09:17:11;;;;;;;2.15;1.02;;;14.40;49.90;;;;;;5072600;28;20025;-81
2023/08/18 09:19:40;;;;;;;0.60;0.50;;;14.30;50.30;;;;;;5072543;28;20076;-81
2023/08/18 09:22:08;;;;;;;2.30;0.80;;;14.20;49.80;;;;;;5072307;28;20020;-82
2023/08/18 09:24:35;;;;;;;1.75;0.75;;;14.20;50.40;;;;;;5076458;28;20115;-82
2023/08/18 09:27:12;;;;;;;2.15;0.70;;;14.20;50.90;;;;;;5076577;28;20030;-81
2023/08/18 09:29:41;;;;;;;1.88;0.70;;;14.20;50.50;;;;;;5076573;28;20070;-82
2023/08/18 09:32:10;;;;;;;0.82;0.60;;;14.20;50.80;;;;;;5076448;28;20040;-81
2023/08/18 09:34:47;;;;;;;3.13;0.88;;;14.20;51.20;;;;;;5075176;28;20020;-81
2023/08/18 09:37:17;;;;;;;4.20;1.75;;;14.20;50.80;;;;;;5076271;28;20479;-82
2023/08/18 09:39:45;;;;;;;1.75;0.98;;;14.10;51.20;;;;;;5076479;28;20028;-82
2023/08/18 09:42:13;;;;;;;1.42;1.00;;;14.20;51.30;;;;;;5076048;28;20025;-82
2023/08/18 09:44:41;;;;;;;4.25;1.10;;;14.20;51.70;;;;;;5076315;28;20051;-82
2023/08/18 09:47:11;;;;;;;1.70;1.10;;;14.10;51.40;;;;;;5076582;28;20024;-81
2023/08/18 09:49:42;;;;;;;2.13;1.35;;;14.10;51.40;;;;;;5076397;28;20024;-81
2023/08/18 09:52:14;;;;;;;2.55;1.30;;;14.00;51.10;;;;;;5076173;28;20052;-81
2023/08/18 09:54:50;;;;;;;1.08;0.98;;;14.00;51.90;;;;;;5076165;28;20032;-82
2023/08/18 09:57:37;;;;;;;2.20;1.08;;;14.00;52.30;;;;;;5075950;28;20039;-82
2023/08/18 10:00:07;;;;;;;1.40;0.90;;;13.90;51.80;;;;;;5076207;28;20025;-81
2023/08/18 10:02:36;;;;;;;1.63;1.23;;;13.90;52.00;;;;;;5076454;28;20101;-81
2023/08/18 10:05:05;;;;;;;2.75;1.80;;;13.90;51.80;;;;;;5075810;28;20399;-81
2023/08/18 10:07:34;;;;;;;4.03;1.88;;;13.90;52.00;;;;;;5075742;28;20032;-82
2023/08/18 10:10:02;;;;;;;4.43;1.98;;;13.90;52.10;;;;;;5076069;28;20020;-82
2023/08/18 10:12:29;;;;;;;2.35;1.25;;;13.90;53.10;;;;;;5075950;28;20025;-82
2023/08/18 10:14:58;;;;;;;2.45;1.10;;;13.80;53.00;;;;;;5075692;28;20047;-82
2023/08/18 10:17:27;;;;;;;2.92;1.38;;;13.90;52.40;;;;;;5090973;28;20038;-82
2023/08/18 10:19:58;;;;;;;2.30;1.60;;;13.80;53.20;;;;;;5075622;28;20041;-82
2023/08/18 10:22:30;;;;;;;4.63;2.08;;;13.80;52.90;;;;;;5074991;28;20111;-82
2023/08/18 10:24:58;;;;;;;3.30;1.88;;;13.70;52.80;;;;;;5075431;28;20108;-82
2023/08/18 10:27:32;;;;;;;2.95;1.80;;;13.70;53.30;;;;;;5075593;28;20025;-82
2023/08/18 10:30:10;;;;;;;1.92;1.55;;;13.70;53.70;;;;;;5075560;28;20017;-82
2023/08/18 10:32:38;;;;;;;3.63;1.30;;;13.70;53.80;;;;;;5075532;28;20025;-81
2023/08/18 10:35:25;;;;;;;2.95;1.33;;;13.70;53.60;;;;;;5074700;28;20021;-81
2023/08/18 10:37:58;;;;;;;1.98;1.35;;;13.70;53.50;;;;;;5075191;28;20115;-80
2023/08/18 10:40:30;;;;;;;4.68;1.90;;;13.60;53.10;;;;;;5074061;28;20093;-82
2023/08/18 10:43:18;;;;;;;2.10;1.55;;;13.60;53.80;;;;;;5075003;28;20036;-82
2023/08/18 10:45:52;;;;;;;2.20;1.27;;;13.60;53.80;;;;;;5075321;28;20110;-83
2023/08/18 10:48:20;;;;;;;3.78;1.70;;;13.60;53.90;;;;;;5075185;28;20356;-83
2023/08/18 10:50:48;;;;;;;2.35;1.50;;;13.60;54.40;;;;;;5075256;28;20020;-82
2023/08/18 10:53:16;;;;;;;5.85;2.83;;;13.60;54.40;;;;;;5075236;28;20028;-82
2023/08/18 10:55:44;;;;;;;4.35;2.40;;;13.60;54.40;;;;;;5075177;28;20027;-83
2023/08/18 10:58:14;;;;;;;3.03;1.58;;;13.60;54.30;;;;;;5090839;28;20043;-83
2023/08/18 11:00:42;;;;;;;2.15;1.17;;;13.60;54.00;;;;;;5073615;28;20025;-82
2023/08/18 11:03:10;;;;;;;2.40;1.25;;;13.60;53.90;;;;;;5075213;28;20107;-83
2023/08/18 11:05:37;;;;;;;3.17;1.40;;;13.60;55.00;;;;;;5075192;28;20029;-83
2023/08/18 11:08:10;;;;;;;2.17;1.30;;;13.60;54.70;;;;;;5074744;28;20016;-82
2023/08/18 11:10:39;;;;;;;1.60;1.20;;;13.50;55.00;;;;;;5074908;28;20073;-82
2023/08/18 11:13:10;;;;;;;4.72;1.25;;;13.50;55.00;;;;;;5074982;28;20115;-83
2023/08/18 11:15:37;;;;;;;1.40;0.82;;;13.40;54.90;;;;;;5075063;28;20020;-82
2023/08/18 11:18:05;;;;;;;1.23;0.80;;;13.40;54.90;;;;;;5074673;28;20036;-81
2023/08/18 11:20:33;;;;;;;1.20;0.80;;;13.40;54.60;;;;;;5074846;28;20374;-86
2023/08/18 11:23:00;;;;;;;4.10;0.80;;;13.40;54.30;;;;;;5074199;28;20031;-83
2023/08/18 11:25:28;;;;;;;1.25;0.85;;;13.40;53.50;;;;;;5075260;28;20016;-81
2023/08/18 11:27:56;;;;;;;1.63;0.60;;;13.40;54.20;;;;;;5075026;28;20032;-83
2023/08/18 11:30:23;;;;;;;1.02;0.80;;;13.30;54.40;;;;;;5075321;28;20020;-83
2023/08/18 11:32:53;;;;;;;2.10;0.80;;;13.30;54.10;;;;;;5090249;28;20067;-83
2023/08/18 11:35:22;;;;;;;1.77;0.70;;;13.30;54.20;;;;;;5089692;28;20028;-83
2023/08/18 11:37:51;;;;;;;1.58;0.85;;;13.30;53.20;;;;;;5074029;28;20044;-81
2023/08/18 11:40:21;;;;;;;4.13;0.93;;;13.30;53.20;;;;;;5074537;28;20104;-82
2023/08/18 11:42:53;;;;;;;2.47;0.70;;;13.20;52.70;;;;;;5074579;28;20021;-82
2023/08/18 11:45:25;;;;;;;2.10;0.90;;;13.20;52.50;;;;;;5073894;28;20021;-81
2023/08/18 11:48:03;;;;;;;1.40;0.80;;;13.20;52.40;;;;;;5074691;28;20029;-82
2023/08/18 11:50:36;;;;;;;4.40;0.75;;;13.20;52.40;;;;;;5074227;28;20021;-82
2023/08/18 11:53:05;;;;;;;2.15;0.52;;;13.20;51.00;;;;;;5073860;28;20032;-82
2023/08/18 11:55:35;;;;;;;1.85;0.68;;;13.20;50.70;;;;;;5074790;28;20017;-81
2023/08/18 11:58:07;;;;;;;2.63;0.45;;;13.20;51.40;;;;;;5074165;28;20155;-82
2023/08/18 12:00:39;;;;;;;1.38;0.43;;;13.20;51.10;;;;;;5074110;28;20020;-81
2023/08/18 12:03:19;;;;;;;1.60;0.50;;;13.10;50.90;;;;;;5073998;28;20029;-81
2023/08/18 12:05:47;;;;;;;2.20;0.70;;;13.10;51.00;;;;;;5074325;28;20028;-82
2023/08/18 12:08:15;;;;;;;1.30;0.50;;;13.10;51.70;;;;;;5073824;28;20031;-82
2023/08/18 12:10:44;;;;;;;1.95;0.90;;;13.10;51.20;;;;;;5089112;28;20066;-82
2023/08/18 12:13:12;;;;;;;5.15;1.10;;;13.00;51.50;;;;;;5073808;28;20462;-82
2023/08/18 12:15:39;;;;;;;2.42;1.08;;;13.00;52.50;;;;;;5073777;28;20052;-83
2023/08/18 12:18:07;;;;;;;4.10;1.42;;;13.00;52.60;;;;;;5073158;28;20166;-81
2023/08/18 12:20:35;;;;;;;2.35;0.60;;;13.00;52.90;;;;;;5073378;28;20386;-82
2023/08/18 12:23:05;;;;;;;0.65;0.47;;;13.00;52.70;;;;;;5071884;28;20078;-82
2023/08/18 12:25:33;;;;;;;0.80;0.50;;;13.00;52.70;;;;;;5073368;28;20475;-82
2023/08/18 12:28:00;;;;;;;2.53;0.80;;;13.00;52.10;;;;;;5073317;28;20041;-82
2023/08/18 12:30:28;;;;;;;1.13;0.70;;;13.00;52.30;;;;;;5073473;28;20017;-83
2023/08/18 12:32:55;;;;;;;2.35;0.60;;;13.00;53.40;;;;;;5073322;28;20032;-82
2023/08/18 12:35:23;;;;;;;0.55;0.40;;;13.00;52.60;;;;;;5088467;28;20021;-82
2023/08/18 12:37:50;;;;;;;3.53;0.75;;;12.90;52.80;;;;;;5073167;28;20044;-82
2023/08/18 12:40:18;;;;;;;2.28;0.68;;;12.90;53.20;;;;;;5073154;28;20066;-82
2023/08/18 12:42:45;;;;;;;1.20;0.55;;;12.90;53.20;;;;;;5072825;28;20573;-81
2023/08/18 12:45:13;;;;;;;1.15;0.50;;;13.00;52.10;;;;;;5073131;28;20104;-82
2023/08/18 12:47:40;;;;;;;2.72;0.80;;;13.00;51.80;;;;;;5073088;28;20031;-82
2023/08/18 12:50:09;;;;;;;2.05;0.70;;;13.00;52.50;;;;;;5073046;28;20016;-81
2023/08/18 12:52:36;;;;;;;1.42;0.60;;;12.90;51.70;;;;;;5072817;28;20025;-76
2023/08/18 12:55:04;;;;;;;0.98;0.40;;;12.90;52.10;;;;;;5072880;28;20016;-82
2023/08/18 12:57:31;;;;;;;0.82;0.57;;;12.80;51.30;;;;;;5072629;28;20094;-78